sensor_id;sensor_type;location;lat;lon;timestamp;P1;durP1;ratioP1;P2;durP2;ratioP2
46721;SDS011;32455;43.430;23.136;2023-05-24T00:01:53;6.15;;;3.35;;
46721;SDS011;32455;43.430;23.136;2023-05-24T00:04:40;5.75;;;2.90;;
46721;SDS011;32455;43.430;23.136;2023-05-24T00:07:25;7.15;;;3.22;;
46721;SDS011;32455;43.430;23.136;2023-05-24T00:10:11;5.32;;;3.17;;
46721;SDS011;32455;43.430;23.136;2023-05-24T00:12:56;4.68;;;3.20;;
46721;SDS011;32455;43.430;23.136;2023-05-24T00:15:41;7.55;;;3.60;;
46721;SDS011;32455;43.430;23.136;2023-05-24T00:18:26;8.93;;;3.25;;
46721;SDS011;32455;43.430;23.136;2023-05-24T00:21:14;4.22;;;3.70;;
46721;SDS011;32455;43.430;23.136;2023-05-24T00:24:00;2.97;;;2.70;;
46721;SDS011;32455;43.430;23.136;2023-05-24T00:26:45;8.02;;;3.25;;
46721;SDS011;32455;43.430;23.136;2023-05-24T00:29:32;3.85;;;3.40;;
46721;SDS011;32455;43.430;23.136;2023-05-24T00:32:17;3.40;;;3.08;;
46721;SDS011;32455;43.430;23.136;2023-05-24T00:35:02;3.67;;;3.22;;
46721;SDS011;32455;43.430;23.136;2023-05-24T00:37:48;7.70;;;3.47;;
46721;SDS011;32455;43.430;23.136;2023-05-24T00:40:34;4.15;;;3.30;;
46721;SDS011;32455;43.430;23.136;2023-05-24T00:43:19;6.22;;;3.92;;
46721;SDS011;32455;43.430;23.136;2023-05-24T00:46:20;5.35;;;3.42;;
46721;SDS011;32455;43.430;23.136;2023-05-24T00:49:13;10.93;;;3.97;;
46721;SDS011;32455;43.430;23.136;2023-05-24T00:51:59;6.22;;;3.80;;
46721;SDS011;32455;43.430;23.136;2023-05-24T00:54:45;9.02;;;4.15;;
46721;SDS011;32455;43.430;23.136;2023-05-24T00:57:30;4.45;;;3.75;;
46721;SDS011;32455;43.430;23.136;2023-05-24T01:00:16;6.43;;;3.35;;
46721;SDS011;32455;43.430;23.136;2023-05-24T01:03:02;6.65;;;3.33;;
46721;SDS011;32455;43.430;23.136;2023-05-24T01:05:47;4.55;;;3.72;;
46721;SDS011;32455;43.430;23.136;2023-05-24T01:14:55;5.18;;;3.55;;
46721;SDS011;32455;43.430;23.136;2023-05-24T01:17:48;7.85;;;4.20;;
46721;SDS011;32455;43.430;23.136;2023-05-24T01:20:49;6.22;;;4.07;;
46721;SDS011;32455;43.430;23.136;2023-05-24T01:29:36;6.25;;;4.00;;
46721;SDS011;32455;43.430;23.136;2023-05-24T01:32:22;8.98;;;4.30;;
46721;SDS011;32455;43.430;23.136;2023-05-24T01:35:08;7.13;;;3.95;;
46721;SDS011;32455;43.430;23.136;2023-05-24T01:37:53;6.28;;;4.30;;
46721;SDS011;32455;43.430;23.136;2023-05-24T01:40:39;7.70;;;4.28;;
46721;SDS011;32455;43.430;23.136;2023-05-24T01:49:39;6.85;;;4.13;;
46721;SDS011;32455;43.430;23.136;2023-05-24T01:52:32;7.82;;;4.60;;
46721;SDS011;32455;43.430;23.136;2023-05-24T01:55:18;7.10;;;5.10;;
46721;SDS011;32455;43.430;23.136;2023-05-24T01:58:05;7.38;;;5.00;;
46721;SDS011;32455;43.430;23.136;2023-05-24T02:00:51;9.65;;;5.05;;
46721;SDS011;32455;43.430;23.136;2023-05-24T02:03:37;5.70;;;4.80;;
46721;SDS011;32455;43.430;23.136;2023-05-24T02:06:23;5.82;;;4.97;;
46721;SDS011;32455;43.430;23.136;2023-05-24T02:09:09;6.05;;;5.18;;
46721;SDS011;32455;43.430;23.136;2023-05-24T02:11:53;9.25;;;4.95;;
46721;SDS011;32455;43.430;23.136;2023-05-24T02:14:39;5.60;;;4.80;;
46721;SDS011;32455;43.430;23.136;2023-05-24T02:17:26;11.20;;;5.47;;
46721;SDS011;32455;43.430;23.136;2023-05-24T02:20:11;7.55;;;5.20;;
46721;SDS011;32455;43.430;23.136;2023-05-24T02:22:57;9.52;;;5.70;;
46721;SDS011;32455;43.430;23.136;2023-05-24T02:25:43;7.50;;;4.95;;
46721;SDS011;32455;43.430;23.136;2023-05-24T02:28:29;9.63;;;5.55;;
46721;SDS011;32455;43.430;23.136;2023-05-24T02:31:15;7.97;;;5.20;;
46721;SDS011;32455;43.430;23.136;2023-05-24T02:34:01;6.03;;;5.43;;
46721;SDS011;32455;43.430;23.136;2023-05-24T02:36:47;10.88;;;5.50;;
46721;SDS011;32455;43.430;23.136;2023-05-24T02:39:33;8.40;;;5.57;;
46721;SDS011;32455;43.430;23.136;2023-05-24T02:42:18;7.47;;;5.65;;
46721;SDS011;32455;43.430;23.136;2023-05-24T02:45:04;11.18;;;5.90;;
46721;SDS011;32455;43.430;23.136;2023-05-24T02:47:49;6.70;;;5.65;;
46721;SDS011;32455;43.430;23.136;2023-05-24T02:50:34;7.20;;;5.80;;
46721;SDS011;32455;43.430;23.136;2023-05-24T02:53:20;13.40;;;6.20;;
46721;SDS011;32455;43.430;23.136;2023-05-24T02:56:05;9.48;;;5.43;;
46721;SDS011;32455;43.430;23.136;2023-05-24T02:58:51;12.18;;;6.25;;
46721;SDS011;32455;43.430;23.136;2023-05-24T03:01:37;9.68;;;6.18;;
46721;SDS011;32455;43.430;23.136;2023-05-24T03:04:24;8.38;;;5.82;;
46721;SDS011;32455;43.430;23.136;2023-05-24T03:07:09;10.48;;;6.38;;
46721;SDS011;32455;43.430;23.136;2023-05-24T03:09:55;7.93;;;5.68;;
46721;SDS011;32455;43.430;23.136;2023-05-24T03:12:41;8.95;;;5.40;;
46721;SDS011;32455;43.430;23.136;2023-05-24T03:15:26;8.48;;;5.57;;
46721;SDS011;32455;43.430;23.136;2023-05-24T03:18:12;8.25;;;5.35;;
46721;SDS011;32455;43.430;23.136;2023-05-24T03:20:57;7.20;;;6.05;;
46721;SDS011;32455;43.430;23.136;2023-05-24T03:23:43;8.85;;;6.50;;
46721;SDS011;32455;43.430;23.136;2023-05-24T03:26:28;6.10;;;5.50;;
46721;SDS011;32455;43.430;23.136;2023-05-24T03:29:13;6.65;;;5.72;;
46721;SDS011;32455;43.430;23.136;2023-05-24T03:31:59;9.38;;;5.93;;
46721;SDS011;32455;43.430;23.136;2023-05-24T03:34:44;11.18;;;8.45;;
46721;SDS011;32455;43.430;23.136;2023-05-24T03:37:29;16.02;;;9.13;;
46721;SDS011;32455;43.430;23.136;2023-05-24T03:40:14;14.65;;;10.48;;
46721;SDS011;32455;43.430;23.136;2023-05-24T03:42:59;22.65;;;18.42;;
46721;SDS011;32455;43.430;23.136;2023-05-24T03:45:44;25.30;;;18.08;;
46721;SDS011;32455;43.430;23.136;2023-05-24T03:48:29;17.63;;;13.63;;
46721;SDS011;32455;43.430;23.136;2023-05-24T03:51:15;12.70;;;8.27;;
46721;SDS011;32455;43.430;23.136;2023-05-24T03:54:00;15.38;;;11.02;;
46721;SDS011;32455;43.430;23.136;2023-05-24T03:56:46;12.55;;;9.70;;
46721;SDS011;32455;43.430;23.136;2023-05-24T03:59:31;10.27;;;8.50;;
46721;SDS011;32455;43.430;23.136;2023-05-24T04:02:16;13.13;;;7.72;;
46721;SDS011;32455;43.430;23.136;2023-05-24T04:05:02;11.77;;;6.85;;
46721;SDS011;32455;43.430;23.136;2023-05-24T04:07:49;9.82;;;6.32;;
46721;SDS011;32455;43.430;23.136;2023-05-24T04:10:34;10.00;;;6.57;;
46721;SDS011;32455;43.430;23.136;2023-05-24T04:13:20;6.90;;;6.07;;
46721;SDS011;32455;43.430;23.136;2023-05-24T04:16:06;9.23;;;6.82;;
46721;SDS011;32455;43.430;23.136;2023-05-24T04:18:56;8.38;;;7.35;;
46721;SDS011;32455;43.430;23.136;2023-05-24T04:21:42;8.85;;;7.93;;
46721;SDS011;32455;43.430;23.136;2023-05-24T04:24:28;9.90;;;7.68;;
46721;SDS011;32455;43.430;23.136;2023-05-24T04:27:13;10.05;;;7.25;;
46721;SDS011;32455;43.430;23.136;2023-05-24T04:29:58;9.23;;;7.85;;
46721;SDS011;32455;43.430;23.136;2023-05-24T04:32:43;9.68;;;6.03;;
46721;SDS011;32455;43.430;23.136;2023-05-24T04:35:29;6.57;;;5.97;;
46721;SDS011;32455;43.430;23.136;2023-05-24T04:38:14;6.50;;;5.55;;
46721;SDS011;32455;43.430;23.136;2023-05-24T04:41:00;9.13;;;5.85;;
46721;SDS011;32455;43.430;23.136;2023-05-24T04:43:45;6.88;;;5.22;;
46721;SDS011;32455;43.430;23.136;2023-05-24T04:46:31;7.72;;;5.20;;
46721;SDS011;32455;43.430;23.136;2023-05-24T04:49:19;6.88;;;4.82;;
46721;SDS011;32455;43.430;23.136;2023-05-24T04:52:06;8.98;;;5.20;;
46721;SDS011;32455;43.430;23.136;2023-05-24T04:54:51;6.35;;;5.47;;
46721;SDS011;32455;43.430;23.136;2023-05-24T04:57:39;6.50;;;5.57;;
46721;SDS011;32455;43.430;23.136;2023-05-24T05:00:24;7.35;;;5.40;;
46721;SDS011;32455;43.430;23.136;2023-05-24T05:03:09;9.10;;;4.80;;
46721;SDS011;32455;43.430;23.136;2023-05-24T05:05:55;6.57;;;5.25;;
46721;SDS011;32455;43.430;23.136;2023-05-24T05:08:40;6.93;;;5.38;;
46721;SDS011;32455;43.430;23.136;2023-05-24T05:11:26;7.60;;;5.15;;
46721;SDS011;32455;43.430;23.136;2023-05-24T05:14:12;8.55;;;5.20;;
46721;SDS011;32455;43.430;23.136;2023-05-24T05:16:57;10.45;;;5.28;;
46721;SDS011;32455;43.430;23.136;2023-05-24T05:19:42;5.90;;;4.30;;
46721;SDS011;32455;43.430;23.136;2023-05-24T05:22:28;6.13;;;4.35;;
46721;SDS011;32455;43.430;23.136;2023-05-24T05:25:12;6.05;;;3.90;;
46721;SDS011;32455;43.430;23.136;2023-05-24T05:27:57;7.00;;;4.57;;
46721;SDS011;32455;43.430;23.136;2023-05-24T05:30:43;7.65;;;4.45;;
46721;SDS011;32455;43.430;23.136;2023-05-24T05:33:31;7.35;;;4.75;;
46721;SDS011;32455;43.430;23.136;2023-05-24T05:36:16;6.22;;;4.22;;
46721;SDS011;32455;43.430;23.136;2023-05-24T05:39:02;7.80;;;4.60;;
46721;SDS011;32455;43.430;23.136;2023-05-24T05:41:47;9.43;;;4.40;;
46721;SDS011;32455;43.430;23.136;2023-05-24T05:44:33;11.30;;;5.22;;
46721;SDS011;32455;43.430;23.136;2023-05-24T05:47:18;7.40;;;4.95;;
46721;SDS011;32455;43.430;23.136;2023-05-24T05:50:03;7.05;;;5.10;;
46721;SDS011;32455;43.430;23.136;2023-05-24T05:52:49;7.60;;;5.10;;
46721;SDS011;32455;43.430;23.136;2023-05-24T05:55:34;7.00;;;4.93;;
46721;SDS011;32455;43.430;23.136;2023-05-24T05:58:20;9.02;;;5.82;;
46721;SDS011;32455;43.430;23.136;2023-05-24T06:01:05;7.63;;;5.57;;
46721;SDS011;32455;43.430;23.136;2023-05-24T06:03:51;9.40;;;5.38;;
46721;SDS011;32455;43.430;23.136;2023-05-24T06:06:36;7.78;;;5.28;;
46721;SDS011;32455;43.430;23.136;2023-05-24T06:09:21;6.25;;;4.88;;
46721;SDS011;32455;43.430;23.136;2023-05-24T06:12:07;9.38;;;5.03;;
46721;SDS011;32455;43.430;23.136;2023-05-24T06:14:54;5.55;;;4.97;;
46721;SDS011;32455;43.430;23.136;2023-05-24T06:17:41;7.72;;;5.45;;
46721;SDS011;32455;43.430;23.136;2023-05-24T06:20:27;7.20;;;5.85;;
46721;SDS011;32455;43.430;23.136;2023-05-24T06:23:13;7.38;;;5.55;;
46721;SDS011;32455;43.430;23.136;2023-05-24T06:25:58;9.30;;;5.00;;
46721;SDS011;32455;43.430;23.136;2023-05-24T06:28:45;8.05;;;5.50;;
46721;SDS011;32455;43.430;23.136;2023-05-24T06:31:30;8.95;;;5.00;;
46721;SDS011;32455;43.430;23.136;2023-05-24T06:34:17;6.47;;;4.82;;
46721;SDS011;32455;43.430;23.136;2023-05-24T06:37:05;7.75;;;4.85;;
46721;SDS011;32455;43.430;23.136;2023-05-24T06:39:54;7.90;;;5.18;;
46721;SDS011;32455;43.430;23.136;2023-05-24T06:42:39;8.80;;;4.68;;
46721;SDS011;32455;43.430;23.136;2023-05-24T06:45:25;10.88;;;4.78;;
46721;SDS011;32455;43.430;23.136;2023-05-24T06:48:10;5.30;;;4.57;;
46721;SDS011;32455;43.430;23.136;2023-05-24T06:50:56;7.50;;;5.05;;
46721;SDS011;32455;43.430;23.136;2023-05-24T06:53:41;10.35;;;4.55;;
46721;SDS011;32455;43.430;23.136;2023-05-24T06:56:27;6.57;;;4.13;;
46721;SDS011;32455;43.430;23.136;2023-05-24T06:59:12;8.02;;;4.63;;
46721;SDS011;32455;43.430;23.136;2023-05-24T07:01:57;9.00;;;4.53;;
46721;SDS011;32455;43.430;23.136;2023-05-24T07:04:43;8.73;;;4.97;;
46721;SDS011;32455;43.430;23.136;2023-05-24T07:07:29;7.20;;;4.55;;
46721;SDS011;32455;43.430;23.136;2023-05-24T07:10:14;5.30;;;4.80;;
46721;SDS011;32455;43.430;23.136;2023-05-24T07:12:58;5.10;;;4.45;;
46721;SDS011;32455;43.430;23.136;2023-05-24T07:15:45;7.18;;;4.78;;
46721;SDS011;32455;43.430;23.136;2023-05-24T07:18:31;9.20;;;4.80;;
46721;SDS011;32455;43.430;23.136;2023-05-24T07:21:16;6.22;;;4.57;;
46721;SDS011;32455;43.430;23.136;2023-05-24T07:24:02;7.60;;;4.72;;
46721;SDS011;32455;43.430;23.136;2023-05-24T07:26:47;5.13;;;4.28;;
46721;SDS011;32455;43.430;23.136;2023-05-24T07:29:33;5.70;;;4.43;;
46721;SDS011;32455;43.430;23.136;2023-05-24T07:32:20;5.60;;;4.22;;
46721;SDS011;32455;43.430;23.136;2023-05-24T07:35:05;5.38;;;4.35;;
46721;SDS011;32455;43.430;23.136;2023-05-24T07:37:51;11.10;;;4.35;;
46721;SDS011;32455;43.430;23.136;2023-05-24T07:40:36;5.90;;;4.30;;
46721;SDS011;32455;43.430;23.136;2023-05-24T07:43:24;5.28;;;4.10;;
46721;SDS011;32455;43.430;23.136;2023-05-24T07:46:10;6.97;;;4.63;;
46721;SDS011;32455;43.430;23.136;2023-05-24T07:48:56;10.63;;;4.18;;
46721;SDS011;32455;43.430;23.136;2023-05-24T07:51:41;6.03;;;4.30;;
46721;SDS011;32455;43.430;23.136;2023-05-24T07:54:27;7.95;;;4.28;;
46721;SDS011;32455;43.430;23.136;2023-05-24T07:57:12;6.55;;;4.25;;
46721;SDS011;32455;43.430;23.136;2023-05-24T07:59:58;7.55;;;4.53;;
46721;SDS011;32455;43.430;23.136;2023-05-24T08:02:52;6.13;;;4.05;;
46721;SDS011;32455;43.430;23.136;2023-05-24T08:05:37;5.53;;;4.38;;
46721;SDS011;32455;43.430;23.136;2023-05-24T08:08:23;7.70;;;4.72;;
46721;SDS011;32455;43.430;23.136;2023-05-24T08:11:08;11.88;;;4.90;;
46721;SDS011;32455;43.430;23.136;2023-05-24T08:13:54;7.95;;;4.78;;
46721;SDS011;32455;43.430;23.136;2023-05-24T08:16:39;11.07;;;4.45;;
46721;SDS011;32455;43.430;23.136;2023-05-24T08:19:25;4.45;;;3.88;;
46721;SDS011;32455;43.430;23.136;2023-05-24T08:22:11;7.15;;;4.20;;
46721;SDS011;32455;43.430;23.136;2023-05-24T08:24:57;6.13;;;3.75;;
46721;SDS011;32455;43.430;23.136;2023-05-24T08:27:42;7.07;;;4.32;;
46721;SDS011;32455;43.430;23.136;2023-05-24T08:30:28;12.35;;;4.30;;
46721;SDS011;32455;43.430;23.136;2023-05-24T08:33:14;6.22;;;4.60;;
46721;SDS011;32455;43.430;23.136;2023-05-24T08:35:59;8.00;;;4.82;;
46721;SDS011;32455;43.430;23.136;2023-05-24T08:38:45;10.48;;;4.25;;
46721;SDS011;32455;43.430;23.136;2023-05-24T08:41:30;5.65;;;4.28;;
46721;SDS011;32455;43.430;23.136;2023-05-24T08:44:20;5.88;;;4.07;;
46721;SDS011;32455;43.430;23.136;2023-05-24T08:47:07;7.03;;;4.20;;
46721;SDS011;32455;43.430;23.136;2023-05-24T08:49:53;6.03;;;4.18;;
46721;SDS011;32455;43.430;23.136;2023-05-24T08:52:39;9.52;;;4.47;;
46721;SDS011;32455;43.430;23.136;2023-05-24T08:55:26;7.05;;;3.92;;
46721;SDS011;32455;43.430;23.136;2023-05-24T08:58:12;5.93;;;4.10;;
46721;SDS011;32455;43.430;23.136;2023-05-24T09:00:57;9.15;;;4.50;;
46721;SDS011;32455;43.430;23.136;2023-05-24T09:03:46;5.35;;;3.78;;
46721;SDS011;32455;43.430;23.136;2023-05-24T09:06:32;5.93;;;4.50;;
46721;SDS011;32455;43.430;23.136;2023-05-24T09:09:17;8.35;;;4.03;;
46721;SDS011;32455;43.430;23.136;2023-05-24T09:12:05;6.63;;;4.35;;
46721;SDS011;32455;43.430;23.136;2023-05-24T09:14:52;3.70;;;3.35;;
46721;SDS011;32455;43.430;23.136;2023-05-24T09:17:38;8.38;;;3.67;;
46721;SDS011;32455;43.430;23.136;2023-05-24T09:20:27;6.30;;;4.30;;
46721;SDS011;32455;43.430;23.136;2023-05-24T09:23:12;8.25;;;3.72;;
46721;SDS011;32455;43.430;23.136;2023-05-24T09:26:02;6.10;;;3.65;;
46721;SDS011;32455;43.430;23.136;2023-05-24T09:28:53;5.60;;;3.70;;
46721;SDS011;32455;43.430;23.136;2023-05-24T09:31:40;10.68;;;3.55;;
46721;SDS011;32455;43.430;23.136;2023-05-24T09:34:27;9.15;;;3.70;;
46721;SDS011;32455;43.430;23.136;2023-05-24T09:37:21;5.72;;;3.60;;
46721;SDS011;32455;43.430;23.136;2023-05-24T09:40:19;6.57;;;4.00;;
46721;SDS011;32455;43.430;23.136;2023-05-24T09:43:07;4.55;;;3.53;;
46721;SDS011;32455;43.430;23.136;2023-05-24T09:45:53;8.90;;;3.63;;
46721;SDS011;32455;43.430;23.136;2023-05-24T09:48:39;5.88;;;3.40;;
46721;SDS011;32455;43.430;23.136;2023-05-24T09:51:25;26.70;;;4.63;;
46721;SDS011;32455;43.430;23.136;2023-05-24T09:54:11;6.00;;;3.60;;
46721;SDS011;32455;43.430;23.136;2023-05-24T09:56:58;7.10;;;3.60;;
46721;SDS011;32455;43.430;23.136;2023-05-24T09:59:46;6.35;;;3.78;;
46721;SDS011;32455;43.430;23.136;2023-05-24T10:02:31;6.80;;;3.50;;
46721;SDS011;32455;43.430;23.136;2023-05-24T10:05:17;4.35;;;3.22;;
46721;SDS011;32455;43.430;23.136;2023-05-24T10:08:02;5.80;;;2.78;;
46721;SDS011;32455;43.430;23.136;2023-05-24T10:10:52;4.57;;;3.20;;
46721;SDS011;32455;43.430;23.136;2023-05-24T10:13:40;5.03;;;3.85;;
46721;SDS011;32455;43.430;23.136;2023-05-24T10:16:26;6.97;;;3.45;;
46721;SDS011;32455;43.430;23.136;2023-05-24T10:19:12;5.47;;;3.47;;
46721;SDS011;32455;43.430;23.136;2023-05-24T10:21:58;8.13;;;3.42;;
46721;SDS011;32455;43.430;23.136;2023-05-24T10:24:45;7.03;;;3.53;;
46721;SDS011;32455;43.430;23.136;2023-05-24T10:27:32;5.03;;;3.20;;
46721;SDS011;32455;43.430;23.136;2023-05-24T10:33:06;6.10;;;3.38;;
46721;SDS011;32455;43.430;23.136;2023-05-24T10:35:53;7.70;;;3.08;;
46721;SDS011;32455;43.430;23.136;2023-05-24T10:38:39;8.00;;;3.25;;
46721;SDS011;32455;43.430;23.136;2023-05-24T10:41:27;7.22;;;3.00;;
46721;SDS011;32455;43.430;23.136;2023-05-24T10:44:17;3.42;;;2.92;;
46721;SDS011;32455;43.430;23.136;2023-05-24T10:47:07;4.22;;;2.65;;
46721;SDS011;32455;43.430;23.136;2023-05-24T10:49:57;5.68;;;3.22;;
46721;SDS011;32455;43.430;23.136;2023-05-24T10:52:43;5.03;;;3.13;;
46721;SDS011;32455;43.430;23.136;2023-05-24T10:55:29;5.53;;;2.65;;
46721;SDS011;32455;43.430;23.136;2023-05-24T10:58:18;5.93;;;3.03;;
46721;SDS011;32455;43.430;23.136;2023-05-24T11:01:04;3.80;;;2.65;;
46721;SDS011;32455;43.430;23.136;2023-05-24T11:04:10;7.93;;;3.45;;
46721;SDS011;32455;43.430;23.136;2023-05-24T11:07:04;6.45;;;3.30;;
46721;SDS011;32455;43.430;23.136;2023-05-24T11:09:50;6.55;;;3.00;;
46721;SDS011;32455;43.430;23.136;2023-05-24T11:12:42;8.20;;;3.13;;
46721;SDS011;32455;43.430;23.136;2023-05-24T11:15:28;8.15;;;3.45;;
46721;SDS011;32455;43.430;23.136;2023-05-24T11:18:14;3.53;;;2.67;;
46721;SDS011;32455;43.430;23.136;2023-05-24T11:21:00;3.80;;;2.97;;
46721;SDS011;32455;43.430;23.136;2023-05-24T11:23:47;7.50;;;3.08;;
46721;SDS011;32455;43.430;23.136;2023-05-24T11:26:33;5.85;;;2.70;;
46721;SDS011;32455;43.430;23.136;2023-05-24T11:29:18;4.65;;;2.95;;
46721;SDS011;32455;43.430;23.136;2023-05-24T11:32:08;4.53;;;2.70;;
46721;SDS011;32455;43.430;23.136;2023-05-24T11:34:53;8.95;;;3.28;;
46721;SDS011;32455;43.430;23.136;2023-05-24T11:37:40;4.75;;;3.05;;
46721;SDS011;32455;43.430;23.136;2023-05-24T11:40:26;7.70;;;3.15;;
46721;SDS011;32455;43.430;23.136;2023-05-24T11:43:12;3.83;;;2.95;;
46721;SDS011;32455;43.430;23.136;2023-05-24T11:45:58;4.63;;;2.78;;
46721;SDS011;32455;43.430;23.136;2023-05-24T11:48:54;4.82;;;2.85;;
46721;SDS011;32455;43.430;23.136;2023-05-24T11:51:41;4.45;;;2.80;;
46721;SDS011;32455;43.430;23.136;2023-05-24T11:54:27;5.07;;;3.03;;
46721;SDS011;32455;43.430;23.136;2023-05-24T11:57:13;7.60;;;2.95;;
46721;SDS011;32455;43.430;23.136;2023-05-24T11:59:59;6.40;;;3.03;;
46721;SDS011;32455;43.430;23.136;2023-05-24T12:02:44;7.28;;;2.55;;
46721;SDS011;32455;43.430;23.136;2023-05-24T12:05:32;6.95;;;3.15;;
46721;SDS011;32455;43.430;23.136;2023-05-24T12:08:17;5.30;;;2.80;;
46721;SDS011;32455;43.430;23.136;2023-05-24T12:11:03;3.22;;;2.70;;
46721;SDS011;32455;43.430;23.136;2023-05-24T12:13:50;3.13;;;2.72;;
46721;SDS011;32455;43.430;23.136;2023-05-24T12:16:35;5.35;;;2.90;;
46721;SDS011;32455;43.430;23.136;2023-05-24T12:19:21;2.83;;;2.50;;
46721;SDS011;32455;43.430;23.136;2023-05-24T12:22:09;7.13;;;2.55;;
46721;SDS011;32455;43.430;23.136;2023-05-24T12:24:55;5.75;;;2.70;;
46721;SDS011;32455;43.430;23.136;2023-05-24T12:27:43;3.47;;;2.45;;
46721;SDS011;32455;43.430;23.136;2023-05-24T12:30:32;5.93;;;2.63;;
46721;SDS011;32455;43.430;23.136;2023-05-24T12:33:20;2.85;;;2.38;;
46721;SDS011;32455;43.430;23.136;2023-05-24T12:36:05;3.15;;;2.42;;
46721;SDS011;32455;43.430;23.136;2023-05-24T12:38:51;4.80;;;2.90;;
46721;SDS011;32455;43.430;23.136;2023-05-24T12:41:36;4.65;;;2.40;;
46721;SDS011;32455;43.430;23.136;2023-05-24T12:44:25;8.55;;;2.78;;
46721;SDS011;32455;43.430;23.136;2023-05-24T12:47:13;4.05;;;2.25;;
46721;SDS011;32455;43.430;23.136;2023-05-24T12:49:58;4.15;;;2.95;;
46721;SDS011;32455;43.430;23.136;2023-05-24T12:52:44;4.88;;;2.60;;
46721;SDS011;32455;43.430;23.136;2023-05-24T12:55:32;4.05;;;2.72;;
46721;SDS011;32455;43.430;23.136;2023-05-24T12:58:17;3.88;;;2.60;;
46721;SDS011;32455;43.430;23.136;2023-05-24T13:01:03;5.70;;;2.35;;
46721;SDS011;32455;43.430;23.136;2023-05-24T13:03:48;8.98;;;3.53;;
46721;SDS011;32455;43.430;23.136;2023-05-24T13:06:34;3.85;;;2.83;;
46721;SDS011;32455;43.430;23.136;2023-05-24T13:09:20;3.78;;;2.70;;
46721;SDS011;32455;43.430;23.136;2023-05-24T13:12:07;3.00;;;2.63;;
46721;SDS011;32455;43.430;23.136;2023-05-24T13:14:52;4.70;;;2.60;;
46721;SDS011;32455;43.430;23.136;2023-05-24T13:17:39;4.30;;;2.70;;
46721;SDS011;32455;43.430;23.136;2023-05-24T13:20:25;5.45;;;2.85;;
46721;SDS011;32455;43.430;23.136;2023-05-24T13:23:11;4.75;;;3.17;;
46721;SDS011;32455;43.430;23.136;2023-05-24T13:25:57;4.03;;;3.15;;
46721;SDS011;32455;43.430;23.136;2023-05-24T13:28:42;4.40;;;2.83;;
46721;SDS011;32455;43.430;23.136;2023-05-24T13:31:28;4.65;;;2.72;;
46721;SDS011;32455;43.430;23.136;2023-05-24T13:34:13;4.97;;;2.70;;
46721;SDS011;32455;43.430;23.136;2023-05-24T13:36:59;4.43;;;2.70;;
46721;SDS011;32455;43.430;23.136;2023-05-24T13:39:45;3.58;;;2.67;;
46721;SDS011;32455;43.430;23.136;2023-05-24T13:42:30;6.25;;;2.70;;
46721;SDS011;32455;43.430;23.136;2023-05-24T13:45:15;8.15;;;3.00;;
46721;SDS011;32455;43.430;23.136;2023-05-24T13:48:01;6.43;;;3.05;;
46721;SDS011;32455;43.430;23.136;2023-05-24T13:50:47;6.32;;;2.40;;
46721;SDS011;32455;43.430;23.136;2023-05-24T13:53:32;5.25;;;2.63;;
46721;SDS011;32455;43.430;23.136;2023-05-24T13:56:17;5.97;;;2.83;;
46721;SDS011;32455;43.430;23.136;2023-05-24T13:59:03;6.35;;;2.88;;
46721;SDS011;32455;43.430;23.136;2023-05-24T14:01:48;4.72;;;2.60;;
46721;SDS011;32455;43.430;23.136;2023-05-24T14:04:34;3.70;;;2.85;;
46721;SDS011;32455;43.430;23.136;2023-05-24T14:07:20;4.03;;;2.70;;
46721;SDS011;32455;43.430;23.136;2023-05-24T14:10:06;2.72;;;2.53;;
46721;SDS011;32455;43.430;23.136;2023-05-24T14:12:53;4.05;;;3.03;;
46721;SDS011;32455;43.430;23.136;2023-05-24T14:15:38;10.68;;;3.47;;
46721;SDS011;32455;43.430;23.136;2023-05-24T14:18:23;5.43;;;2.83;;
46721;SDS011;32455;43.430;23.136;2023-05-24T14:21:09;2.55;;;2.30;;
46721;SDS011;32455;43.430;23.136;2023-05-24T14:23:55;7.00;;;3.08;;
46721;SDS011;32455;43.430;23.136;2023-05-24T14:26:41;3.40;;;2.78;;
46721;SDS011;32455;43.430;23.136;2023-05-24T14:29:26;2.65;;;2.17;;
46721;SDS011;32455;43.430;23.136;2023-05-24T14:32:12;5.95;;;2.28;;
46721;SDS011;32455;43.430;23.136;2023-05-24T14:35:00;4.55;;;2.28;;
46721;SDS011;32455;43.430;23.136;2023-05-24T14:37:45;3.85;;;2.72;;
46721;SDS011;32455;43.430;23.136;2023-05-24T14:40:30;3.55;;;2.35;;
46721;SDS011;32455;43.430;23.136;2023-05-24T14:43:18;3.75;;;2.30;;
46721;SDS011;32455;43.430;23.136;2023-05-24T14:46:03;3.72;;;2.42;;
46721;SDS011;32455;43.430;23.136;2023-05-24T14:48:49;2.78;;;2.38;;
46721;SDS011;32455;43.430;23.136;2023-05-24T14:51:34;3.72;;;2.47;;
46721;SDS011;32455;43.430;23.136;2023-05-24T14:54:20;4.55;;;2.30;;
46721;SDS011;32455;43.430;23.136;2023-05-24T14:57:06;3.35;;;2.50;;
46721;SDS011;32455;43.430;23.136;2023-05-24T14:59:51;5.07;;;2.35;;
46721;SDS011;32455;43.430;23.136;2023-05-24T15:02:37;3.45;;;2.38;;
46721;SDS011;32455;43.430;23.136;2023-05-24T15:05:22;2.80;;;2.30;;
46721;SDS011;32455;43.430;23.136;2023-05-24T15:08:08;4.75;;;2.75;;
46721;SDS011;32455;43.430;23.136;2023-05-24T15:10:54;5.65;;;3.00;;
46721;SDS011;32455;43.430;23.136;2023-05-24T15:13:40;3.40;;;2.50;;
46721;SDS011;32455;43.430;23.136;2023-05-24T15:16:25;5.68;;;2.55;;
46721;SDS011;32455;43.430;23.136;2023-05-24T15:19:11;4.57;;;2.45;;
46721;SDS011;32455;43.430;23.136;2023-05-24T15:21:57;4.95;;;2.60;;
46721;SDS011;32455;43.430;23.136;2023-05-24T15:24:43;8.77;;;2.45;;
46721;SDS011;32455;43.430;23.136;2023-05-24T15:27:27;3.67;;;2.70;;
46721;SDS011;32455;43.430;23.136;2023-05-24T15:30:13;3.78;;;2.70;;
46721;SDS011;32455;43.430;23.136;2023-05-24T15:32:58;9.77;;;2.60;;
46721;SDS011;32455;43.430;23.136;2023-05-24T15:35:43;5.25;;;3.05;;
46721;SDS011;32455;43.430;23.136;2023-05-24T15:38:28;4.95;;;2.92;;
46721;SDS011;32455;43.430;23.136;2023-05-24T15:41:14;7.65;;;3.10;;
46721;SDS011;32455;43.430;23.136;2023-05-24T15:43:59;3.50;;;2.45;;
46721;SDS011;32455;43.430;23.136;2023-05-24T15:46:52;5.50;;;2.67;;
46721;SDS011;32455;43.430;23.136;2023-05-24T15:49:37;5.15;;;2.40;;
46721;SDS011;32455;43.430;23.136;2023-05-24T15:52:23;8.10;;;2.88;;
46721;SDS011;32455;43.430;23.136;2023-05-24T15:55:09;7.28;;;2.85;;
46721;SDS011;32455;43.430;23.136;2023-05-24T15:57:55;6.05;;;2.63;;
46721;SDS011;32455;43.430;23.136;2023-05-24T16:00:41;5.00;;;2.83;;
46721;SDS011;32455;43.430;23.136;2023-05-24T16:03:27;2.97;;;2.40;;
46721;SDS011;32455;43.430;23.136;2023-05-24T16:06:12;6.32;;;2.85;;
46721;SDS011;32455;43.430;23.136;2023-05-24T16:08:57;8.35;;;2.78;;
46721;SDS011;32455;43.430;23.136;2023-05-24T16:11:43;3.15;;;2.85;;
46721;SDS011;32455;43.430;23.136;2023-05-24T16:14:28;4.18;;;3.20;;
46721;SDS011;32455;43.430;23.136;2023-05-24T16:17:13;4.32;;;3.50;;
46721;SDS011;32455;43.430;23.136;2023-05-24T16:19:59;7.82;;;4.72;;
46721;SDS011;32455;43.430;23.136;2023-05-24T16:22:48;16.60;;;8.25;;
46721;SDS011;32455;43.430;23.136;2023-05-24T16:25:33;4.10;;;2.97;;
46721;SDS011;32455;43.430;23.136;2023-05-24T16:28:18;3.58;;;2.72;;
46721;SDS011;32455;43.430;23.136;2023-05-24T16:31:08;28.40;;;15.07;;
46721;SDS011;32455;43.430;23.136;2023-05-24T16:33:54;12.60;;;5.57;;
46721;SDS011;32455;43.430;23.136;2023-05-24T16:36:39;10.98;;;5.78;;
46721;SDS011;32455;43.430;23.136;2023-05-24T16:39:25;16.58;;;8.07;;
46721;SDS011;32455;43.430;23.136;2023-05-24T16:42:11;39.20;;;21.20;;
46721;SDS011;32455;43.430;23.136;2023-05-24T16:44:56;39.47;;;21.98;;
46721;SDS011;32455;43.430;23.136;2023-05-24T16:47:41;10.70;;;4.28;;